Time;durP1;ratioP1;P1;durP2;ratioP2;P2;SDS_P1;SDS_P2;PMS_P1;PMS_P2;Temp;Humidity;BMP_temperature;BMP_pressure;BME280_temperature;BME280_humidity;BME280_pressure;Samples;Min_cycle;Max_cycle;Signal;HPM_P1;HPM_P2
2021/09/20 00:00:37;;;;;;;3.08;2.15;;;21.10;60.70;;;;;;3028228;29;20045;-90
2021/09/20 00:02:11;;;;;;;3.60;2.00;;;21.10;60.80;;;;;;3028159;29;20053;-89
2021/09/20 00:03:43;;;;;;;2.85;2.05;;;21.10;60.80;;;;;;3027974;29;20513;-89
2021/09/20 00:05:13;;;;;;;2.92;1.90;;;21.10;60.80;;;;;;3028397;29;20061;-90
2021/09/20 00:06:45;;;;;;;9.10;2.78;;;21.10;60.80;;;;;;3028402;29;20056;-88
2021/09/20 00:08:17;;;;;;;3.28;1.90;;;21.10;60.90;;;;;;3028534;29;20051;-88
2021/09/20 00:09:48;;;;;;;3.75;1.90;;;21.10;60.90;;;;;;3027793;29;20437;-89
2021/09/20 00:11:19;;;;;;;3.80;1.90;;;21.10;60.90;;;;;;3028517;29;20052;-87
2021/09/20 00:12:51;;;;;;;4.03;2.30;;;21.10;60.90;;;;;;3028211;29;20064;-87
2021/09/20 00:14:23;;;;;;;4.18;2.22;;;21.10;60.90;;;;;;3027578;29;20053;-88
2021/09/20 00:15:55;;;;;;;3.15;1.98;;;21.10;60.90;;;;;;3027583;29;20045;-88
2021/09/20 00:17:28;;;;;;;2.67;1.83;;;21.00;60.80;;;;;;3028265;29;20057;-88
2021/09/20 00:19:00;;;;;;;3.30;1.95;;;21.00;60.80;;;;;;3027791;29;20049;-87
2021/09/20 00:20:32;;;;;;;3.55;2.05;;;21.00;60.90;;;;;;3028177;29;20116;-88
2021/09/20 00:22:05;;;;;;;3.88;1.90;;;21.00;60.90;;;;;;3027964;29;20061;-88
2021/09/20 00:23:37;;;;;;;3.38;2.10;;;21.00;60.80;;;;;;3027847;29;20045;-91
2021/09/20 00:25:10;;;;;;;4.03;2.10;;;21.00;60.80;;;;;;3028142;29;20514;-89
2021/09/20 00:26:42;;;;;;;3.00;1.90;;;21.00;60.80;;;;;;3028208;29;20057;-90
2021/09/20 00:28:14;;;;;;;3.20;2.08;;;21.00;60.80;;;;;;3028402;29;20245;-89
2021/09/20 00:29:46;;;;;;;2.97;2.00;;;21.00;60.80;;;;;;3027628;29;20406;-90
2021/09/20 00:31:18;;;;;;;2.95;1.88;;;21.00;60.80;;;;;;3027764;29;20037;-89
2021/09/20 00:32:51;;;;;;;3.65;1.90;;;21.00;60.80;;;;;;3028348;29;20064;-89
2021/09/20 00:34:22;;;;;;;3.20;1.98;;;21.00;60.80;;;;;;3027729;29;20378;-92
2021/09/20 00:35:54;;;;;;;3.33;1.88;;;21.00;60.80;;;;;;3028078;29;20061;-92
2021/09/20 00:37:26;;;;;;;3.20;1.90;;;21.00;60.80;;;;;;3028019;29;20085;-89
2021/09/20 00:38:57;;;;;;;5.18;2.10;;;21.00;60.80;;;;;;3026506;29;20394;-89
2021/09/20 00:40:29;;;;;;;4.57;2.25;;;21.00;60.80;;;;;;3028180;29;20517;-87
2021/09/20 00:42:01;;;;;;;2.50;1.85;;;21.00;60.80;;;;;;3028240;29;20060;-87
2021/09/20 00:43:32;;;;;;;3.03;1.73;;;21.00;60.80;;;;;;3027613;29;20045;-88
2021/09/20 00:45:06;;;;;;;3.75;2.00;;;20.90;60.80;;;;;;3027869;29;20140;-88
2021/09/20 00:46:38;;;;;;;2.30;1.85;;;21.00;60.80;;;;;;3027556;29;20406;-87
2021/09/20 00:48:11;;;;;;;3.90;1.75;;;20.90;60.80;;;;;;3028041;29;20064;-88
2021/09/20 00:49:43;;;;;;;2.63;1.77;;;20.90;60.80;;;;;;3027378;29;20053;-90
2021/09/20 00:51:15;;;;;;;4.00;1.90;;;21.00;60.80;;;;;;3027984;29;20152;-89
2021/09/20 00:52:46;;;;;;;3.92;1.95;;;21.00;60.80;;;;;;3027901;29;20405;-87
2021/09/20 00:54:18;;;;;;;4.60;2.00;;;20.90;60.80;;;;;;3027459;29;20048;-88
2021/09/20 00:55:50;;;;;;;3.60;2.05;;;20.90;60.80;;;;;;3027813;29;20469;-87
2021/09/20 00:57:22;;;;;;;2.92;1.70;;;20.90;60.80;;;;;;3028025;29;20061;-88
2021/09/20 00:58:54;;;;;;;3.67;1.73;;;20.90;60.80;;;;;;3022917;29;20053;-87
2021/09/20 01:00:26;;;;;;;3.15;1.73;;;20.90;60.80;;;;;;3024124;29;20429;-88
2021/09/20 01:01:58;;;;;;;2.33;1.90;;;20.90;60.80;;;;;;3027999;29;20053;-88
2021/09/20 01:03:31;;;;;;;4.05;1.92;;;20.90;60.80;;;;;;3027211;29;20068;-89
2021/09/20 01:05:03;;;;;;;2.63;1.70;;;20.90;60.80;;;;;;3027740;29;20105;-87
2021/09/20 01:06:33;;;;;;;2.55;1.58;;;20.90;60.80;;;;;;3027876;29;20108;-87
2021/09/20 01:08:05;;;;;;;2.95;1.80;;;20.90;60.80;;;;;;3027902;29;20052;-87
2021/09/20 01:09:40;;;;;;;3.10;1.70;;;20.90;60.80;;;;;;3027238;29;20053;-87
2021/09/20 01:11:12;;;;;;;3.67;1.80;;;20.90;60.80;;;;;;3027790;29;20151;-87
2021/09/20 01:12:44;;;;;;;3.20;1.55;;;20.90;60.80;;;;;;3027755;29;20093;-89
2021/09/20 01:14:16;;;;;;;2.75;1.80;;;20.90;60.80;;;;;;3026970;29;20324;-87
2021/09/20 01:15:47;;;;;;;2.17;1.55;;;20.90;60.80;;;;;;3026822;29;20517;-87
2021/09/20 01:17:19;;;;;;;3.13;1.88;;;20.90;60.80;;;;;;3027703;29;20061;-87
2021/09/20 01:18:52;;;;;;;1.92;1.60;;;20.90;60.80;;;;;;3026999;29;20525;-89
2021/09/20 01:20:24;;;;;;;3.10;1.67;;;20.80;60.70;;;;;;3019673;29;20292;-88
2021/09/20 01:21:56;;;;;;;3.38;1.70;;;20.80;60.70;;;;;;3015982;29;20053;-87
2021/09/20 01:23:29;;;;;;;3.03;1.80;;;20.80;60.70;;;;;;3015751;29;20437;-87
2021/09/20 01:25:00;;;;;;;3.25;2.03;;;20.90;60.80;;;;;;3016060;29;20454;-88
2021/09/20 01:26:32;;;;;;;2.67;1.80;;;20.80;60.70;;;;;;3015964;29;20137;-87
2021/09/20 01:28:04;;;;;;;3.88;1.90;;;20.80;60.70;;;;;;3016048;29;20045;-88
2021/09/20 01:29:34;;;;;;;4.10;1.97;;;20.80;60.70;;;;;;3015721;29;20053;-87
2021/09/20 01:31:06;;;;;;;3.42;1.80;;;20.80;60.70;;;;;;3015149;29;20294;-87
2021/09/20 01:32:38;;;;;;;4.18;1.70;;;20.80;60.70;;;;;;3016131;29;20057;-87
2021/09/20 01:34:10;;;;;;;2.65;1.60;;;20.80;60.70;;;;;;3015606;29;20060;-87
2021/09/20 01:35:42;;;;;;;2.63;1.70;;;20.80;60.70;;;;;;3015935;29;20068;-87
2021/09/20 01:37:14;;;;;;;2.28;1.73;;;20.80;60.80;;;;;;3015736;29;20549;-88
2021/09/20 01:38:47;;;;;;;2.47;1.80;;;20.80;60.70;;;;;;3015575;29;20053;-87
2021/09/20 01:40:19;;;;;;;2.80;1.70;;;20.80;60.70;;;;;;3016061;29;20053;-87
2021/09/20 01:41:50;;;;;;;3.10;1.60;;;20.80;60.80;;;;;;3015696;29;20113;-87
2021/09/20 01:43:21;;;;;;;2.67;1.70;;;20.80;60.80;;;;;;3016004;29;20850;-88
2021/09/20 01:44:52;;;;;;;2.13;1.65;;;20.70;60.90;;;;;;3015234;29;20053;-90
2021/09/20 01:46:24;;;;;;;2.58;1.65;;;20.80;60.80;;;;;;3015335;29;20052;-87
2021/09/20 01:47:56;;;;;;;4.00;1.90;;;20.70;60.70;;;;;;3015625;29;20113;-88
2021/09/20 01:49:26;;;;;;;2.13;1.67;;;20.70;60.80;;;;;;3015067;29;20056;-89
2021/09/20 01:50:58;;;;;;;2.88;1.40;;;20.70;60.90;;;;;;3015774;29;20061;-87
2021/09/20 01:52:30;;;;;;;1.90;1.67;;;20.80;60.70;;;;;;3015568;29;20110;-87
2021/09/20 01:54:03;;;;;;;2.97;1.70;;;20.70;60.70;;;;;;3015110;29;20057;-88
2021/09/20 01:55:35;;;;;;;3.55;1.95;;;20.70;60.70;;;;;;3015842;29;20057;-88
2021/09/20 01:57:06;;;;;;;2.33;1.65;;;20.70;60.70;;;;;;3015783;29;20482;-87
2021/09/20 01:58:37;;;;;;;2.22;1.70;;;20.70;60.70;;;;;;3015426;29;20071;-87
2021/09/20 02:00:10;;;;;;;1.88;1.50;;;20.70;60.70;;;;;;3015007;29;20058;-87
2021/09/20 02:01:42;;;;;;;2.53;1.63;;;20.70;60.70;;;;;;3015726;29;20109;-89
2021/09/20 02:03:14;;;;;;;3.17;1.83;;;20.70;60.80;;;;;;3015729;29;20057;-90
2021/09/20 02:04:45;;;;;;;1.77;1.58;;;20.70;60.80;;;;;;3015075;29;20049;-87
2021/09/20 02:06:17;;;;;;;2.75;1.65;;;20.70;60.80;;;;;;3015909;29;20547;-88
2021/09/20 02:07:48;;;;;;;4.82;1.60;;;20.70;60.80;;;;;;3015404;29;20060;-89
2021/09/20 02:09:22;;;;;;;3.25;1.70;;;20.70;60.90;;;;;;3015258;29;20082;-90
2021/09/20 02:10:53;;;;;;;2.65;1.80;;;20.70;60.90;;;;;;3015578;29;20513;-87
2021/09/20 02:12:25;;;;;;;2.85;1.65;;;20.70;60.70;;;;;;3015431;29;20125;-87
2021/09/20 02:13:57;;;;;;;2.45;1.70;;;20.70;60.80;;;;;;3015161;29;20045;-88
2021/09/20 02:15:29;;;;;;;4.28;1.63;;;20.60;60.80;;;;;;3014804;29;20045;-91
2021/09/20 02:17:00;;;;;;;4.80;1.80;;;20.60;60.80;;;;;;3015532;29;20056;-87
2021/09/20 02:18:32;;;;;;;2.92;1.77;;;20.60;60.80;;;;;;3015249;29;20118;-87
2021/09/20 02:20:05;;;;;;;2.95;1.73;;;20.60;60.80;;;;;;3021208;29;20061;-87
2021/09/20 02:21:37;;;;;;;2.05;1.50;;;20.60;60.80;;;;;;3026982;29;20539;-88
2021/09/20 02:23:12;;;;;;;2.88;1.52;;;20.60;60.70;;;;;;3027082;29;20057;-87
2021/09/20 02:24:45;;;;;;;2.63;1.48;;;20.70;60.70;;;;;;3026525;29;20128;-87
2021/09/20 02:26:17;;;;;;;3.42;1.80;;;20.70;60.70;;;;;;3027030;29;20057;-87
2021/09/20 02:27:48;;;;;;;2.22;1.60;;;20.60;60.60;;;;;;3026841;29;20057;-87
2021/09/20 02:29:19;;;;;;;2.25;1.63;;;20.60;60.70;;;;;;3026487;29;20497;-87
2021/09/20 02:30:51;;;;;;;1.73;1.48;;;20.60;60.60;;;;;;3026289;29;20053;-87
2021/09/20 02:32:22;;;;;;;2.15;1.67;;;20.60;60.70;;;;;;3026663;29;20105;-87
2021/09/20 02:33:54;;;;;;;2.40;1.70;;;20.60;60.60;;;;;;3026202;29;20056;-87
2021/09/20 02:35:26;;;;;;;3.20;1.60;;;20.60;60.70;;;;;;3026873;29;20053;-88
2021/09/20 02:36:57;;;;;;;2.13;1.40;;;20.60;60.70;;;;;;3026779;29;20064;-90
2021/09/20 02:38:29;;;;;;;1.92;1.52;;;20.60;60.80;;;;;;3026286;29;20059;-88
2021/09/20 02:40:02;;;;;;;2.65;1.50;;;20.60;60.80;;;;;;3026998;29;20057;-88
2021/09/20 02:41:33;;;;;;;2.42;1.42;;;20.60;60.80;;;;;;3026935;29;20555;-87
2021/09/20 02:43:05;;;;;;;1.60;1.40;;;20.60;60.70;;;;;;3026862;29;20060;-87
2021/09/20 02:44:37;;;;;;;2.53;1.60;;;20.60;60.70;;;;;;3026239;29;20049;-88
2021/09/20 02:46:08;;;;;;;2.33;1.60;;;20.60;60.80;;;;;;3025931;29;20053;-87
2021/09/20 02:47:40;;;;;;;2.08;1.70;;;20.60;60.70;;;;;;3026718;29;20045;-87
2021/09/20 02:49:11;;;;;;;1.70;1.40;;;20.60;60.70;;;;;;3026317;29;20425;-87
2021/09/20 02:50:43;;;;;;;2.85;1.65;;;20.60;60.80;;;;;;3026622;29;20049;-87
2021/09/20 02:52:15;;;;;;;2.40;1.75;;;20.60;60.80;;;;;;3026576;29;20086;-87
2021/09/20 02:53:46;;;;;;;2.63;1.55;;;20.60;60.80;;;;;;3026337;29;20045;-89
2021/09/20 02:55:20;;;;;;;2.85;1.90;;;20.50;60.80;;;;;;3026964;29;20060;-87
2021/09/20 02:56:51;;;;;;;2.55;1.63;;;20.50;60.80;;;;;;3026473;29;20064;-88
2021/09/20 02:58:23;;;;;;;2.40;1.60;;;20.50;60.90;;;;;;3026131;29;20556;-87
2021/09/20 02:59:55;;;;;;;2.50;1.77;;;20.50;60.80;;;;;;3022186;29;20046;-91
2021/09/20 03:01:27;;;;;;;2.83;1.85;;;20.50;60.90;;;;;;3013710;29;20521;-87
2021/09/20 03:02:58;;;;;;;4.93;1.63;;;20.50;60.90;;;;;;3015692;29;20053;-87
2021/09/20 03:04:30;;;;;;;2.35;1.60;;;20.50;60.80;;;;;;3014894;29;20046;-87
2021/09/20 03:06:02;;;;;;;1.70;1.33;;;20.50;60.80;;;;;;3015338;29;20061;-87
2021/09/20 03:07:34;;;;;;;2.33;1.55;;;20.50;60.80;;;;;;3014719;29;20049;-87
2021/09/20 03:09:05;;;;;;;2.50;1.58;;;20.50;60.80;;;;;;3014592;29;20053;-88
2021/09/20 03:10:38;;;;;;;1.60;1.40;;;20.50;60.90;;;;;;3015234;29;20065;-87
2021/09/20 03:12:10;;;;;;;2.78;1.60;;;20.50;60.80;;;;;;3015058;29;20141;-87
2021/09/20 03:13:42;;;;;;;2.00;1.40;;;20.50;60.80;;;;;;3014398;29;20072;-88
2021/09/20 03:15:14;;;;;;;2.40;1.60;;;20.50;60.80;;;;;;3014097;29;20072;-90
2021/09/20 03:16:45;;;;;;;2.47;1.67;;;20.50;60.80;;;;;;3015171;29;20494;-87
2021/09/20 03:18:17;;;;;;;2.22;1.75;;;20.50;60.80;;;;;;3015073;29;20148;-88
2021/09/20 03:19:49;;;;;;;1.73;1.50;;;20.50;60.80;;;;;;3022701;29;20505;-86
2021/09/20 03:21:23;;;;;;;1.95;1.50;;;20.50;60.90;;;;;;3026637;29;20116;-87
2021/09/20 03:22:55;;;;;;;2.60;1.60;;;20.50;60.80;;;;;;3026663;29;20081;-87
2021/09/20 03:24:26;;;;;;;1.77;1.40;;;20.50;60.90;;;;;;3026091;29;20509;-87
2021/09/20 03:25:59;;;;;;;2.00;1.50;;;20.50;60.90;;;;;;3026615;29;20170;-88
2021/09/20 03:27:31;;;;;;;2.30;1.67;;;20.50;60.90;;;;;;3026197;29;20060;-87
2021/09/20 03:29:02;;;;;;;2.60;1.55;;;20.50;60.90;;;;;;3026069;29;20501;-89
2021/09/20 03:30:34;;;;;;;3.33;1.60;;;20.50;60.90;;;;;;3025740;29;20112;-87
2021/09/20 03:32:06;;;;;;;1.92;1.50;;;20.50;60.90;;;;;;3026297;29;20481;-87
2021/09/20 03:33:38;;;;;;;1.80;1.40;;;20.50;61.00;;;;;;3026054;29;20454;-87
2021/09/20 03:35:11;;;;;;;1.80;1.40;;;20.40;60.90;;;;;;3026589;29;20057;-87
2021/09/20 03:36:43;;;;;;;2.97;1.55;;;20.40;60.90;;;;;;3026394;29;20053;-87
2021/09/20 03:38:15;;;;;;;1.85;1.30;;;20.40;60.90;;;;;;3026358;29;20053;-88
2021/09/20 03:39:47;;;;;;;1.92;1.50;;;20.50;61.00;;;;;;3026056;29;20141;-87
2021/09/20 03:41:20;;;;;;;1.63;1.50;;;20.40;61.00;;;;;;3026481;29;20101;-88
2021/09/20 03:42:51;;;;;;;1.55;1.40;;;20.40;61.00;;;;;;3026332;29;20056;-87
2021/09/20 03:44:22;;;;;;;1.95;1.60;;;20.40;60.90;;;;;;3025761;29;20112;-88
2021/09/20 03:45:54;;;;;;;1.60;1.48;;;20.40;61.00;;;;;;3025633;29;20540;-87
2021/09/20 03:47:25;;;;;;;2.75;1.50;;;20.40;61.00;;;;;;3026306;29;20056;-87
2021/09/20 03:48:56;;;;;;;2.88;1.58;;;20.40;61.00;;;;;;3024527;29;20056;-88
2021/09/20 03:50:28;;;;;;;1.63;1.40;;;20.40;61.00;;;;;;3023557;29;20053;-87
2021/09/20 03:52:00;;;;;;;2.70;1.60;;;20.40;61.00;;;;;;3026610;29;20577;-87
2021/09/20 03:53:32;;;;;;;1.95;1.40;;;20.50;60.80;;;;;;3025655;29;20057;-88
2021/09/20 03:55:04;;;;;;;2.25;1.63;;;20.50;60.80;;;;;;3026478;29;20505;-89
2021/09/20 03:56:37;;;;;;;2.15;1.45;;;20.40;61.00;;;;;;3026533;29;20406;-88
2021/09/20 03:58:09;;;;;;;1.95;1.50;;;20.40;61.10;;;;;;3026453;29;20072;-88
2021/09/20 03:59:40;;;;;;;1.63;1.30;;;20.50;60.90;;;;;;3026068;29;20124;-87
2021/09/20 04:01:12;;;;;;;2.78;1.45;;;20.60;60.60;;;;;;3025732;29;20097;-85
2021/09/20 04:02:43;;;;;;;2.22;1.35;;;20.60;60.60;;;;;;3026424;29;20049;-88
2021/09/20 04:04:16;;;;;;;2.55;1.25;;;20.60;60.60;;;;;;3025946;29;20121;-87
2021/09/20 04:05:48;;;;;;;;;;;20.70;60.30;;;;;;3026792;29;20486;-89
2021/09/20 04:07:20;;;;;;;1.92;1.55;;;20.80;60.30;;;;;;3026309;29;20376;-87
2021/09/20 04:08:53;;;;;;;1.80;1.30;;;20.90;60.00;;;;;;3026150;29;20105;-87
2021/09/20 04:10:24;;;;;;;1.88;1.20;;;21.00;59.80;;;;;;3026629;29;20167;-87
2021/09/20 04:11:58;;;;;;;2.30;1.55;;;21.00;60.10;;;;;;3026546;29;20056;-89
2021/09/20 04:13:29;;;;;;;1.40;1.30;;;21.10;59.50;;;;;;3027581;29;20049;-87
2021/09/20 04:15:00;;;;;;;1.52;1.30;;;21.20;59.30;;;;;;3028202;29;20466;-87
2021/09/20 04:16:32;;;;;;;2.13;1.35;;;21.20;59.20;;;;;;3027542;29;20136;-87
2021/09/20 04:18:04;;;;;;;1.40;1.10;;;21.30;59.00;;;;;;3028519;29;20424;-87
2021/09/20 04:19:37;;;;;;;1.33;1.10;;;21.40;58.80;;;;;;3027692;29;20061;-88
2021/09/20 04:21:09;;;;;;;2.20;1.42;;;21.40;58.60;;;;;;3028426;29;20064;-89
2021/09/20 04:22:41;;;;;;;2.38;1.50;;;21.50;58.60;;;;;;3028282;29;20057;-89
2021/09/20 04:24:13;;;;;;;1.50;1.40;;;21.50;58.50;;;;;;3027511;29;20045;-87
2021/09/20 04:25:44;;;;;;;1.38;1.08;;;21.60;58.20;;;;;;3028379;29;20049;-87
2021/09/20 04:27:17;;;;;;;1.85;1.05;;;21.70;58.70;;;;;;3027618;29;20053;-87
2021/09/20 04:28:49;;;;;;;1.52;1.30;;;21.70;58.00;;;;;;3026766;29;20052;-88
2021/09/20 04:30:21;;;;;;;3.75;1.20;;;21.80;57.90;;;;;;3026402;29;20064;-87
2021/09/20 04:31:52;;;;;;;1.83;1.40;;;21.90;57.70;;;;;;3027028;29;20063;-88
2021/09/20 04:33:24;;;;;;;2.67;1.30;;;22.00;57.60;;;;;;3026877;29;20049;-87
2021/09/20 04:34:56;;;;;;;1.75;1.50;;;22.00;57.40;;;;;;3026675;29;20463;-87
2021/09/20 04:36:27;;;;;;;1.50;1.17;;;22.10;57.20;;;;;;3026675;29;20056;-89
2021/09/20 04:37:59;;;;;;;2.13;1.30;;;22.20;56.90;;;;;;3027100;29;20049;-88
2021/09/20 04:39:31;;;;;;;1.25;1.10;;;22.30;56.80;;;;;;3026849;29;20049;-87
2021/09/20 04:41:03;;;;;;;2.08;1.30;;;22.30;56.70;;;;;;3027475;29;20492;-87
2021/09/20 04:42:36;;;;;;;1.95;1.30;;;22.40;56.50;;;;;;3027012;29;20513;-87
2021/09/20 04:44:07;;;;;;;2.25;1.30;;;22.50;56.40;;;;;;3026670;29;20045;-87
2021/09/20 04:45:39;;;;;;;1.70;1.27;;;22.60;56.40;;;;;;3025549;29;20057;-87
2021/09/20 04:47:11;;;;;;;1.80;1.40;;;22.60;56.30;;;;;;3026778;29;20548;-87
2021/09/20 04:48:43;;;;;;;1.70;1.30;;;22.70;56.10;;;;;;3026911;29;20667;-87
2021/09/20 04:50:14;;;;;;;3.55;1.42;;;22.70;56.00;;;;;;3027094;29;20044;-87
2021/09/20 04:51:46;;;;;;;1.45;1.17;;;22.80;56.20;;;;;;3026302;29;20044;-89
2021/09/20 04:53:18;;;;;;;1.35;1.10;;;22.80;55.90;;;;;;3020127;29;20049;-87
2021/09/20 04:54:50;;;;;;;2.25;1.30;;;22.90;55.70;;;;;;3014191;29;20492;-88
2021/09/20 04:56:22;;;;;;;1.83;1.42;;;22.90;55.70;;;;;;3015884;29;20072;-88
2021/09/20 04:57:55;;;;;;;1.55;1.35;;;22.90;55.60;;;;;;3015643;29;20462;-87
2021/09/20 04:59:26;;;;;;;1.50;1.10;;;22.90;55.60;;;;;;3023395;29;20411;-88
2021/09/20 05:00:58;;;;;;;1.38;1.20;;;23.00;55.60;;;;;;3026149;29;20044;-87
2021/09/20 05:02:30;;;;;;;1.30;1.15;;;23.00;55.60;;;;;;3027351;29;20049;-87
2021/09/20 05:04:01;;;;;;;2.35;1.25;;;23.00;55.60;;;;;;3026510;29;20045;-87
2021/09/20 05:05:33;;;;;;;1.65;1.30;;;23.00;55.50;;;;;;3026109;29;20061;-87
2021/09/20 05:07:05;;;;;;;1.20;1.05;;;23.10;55.50;;;;;;3027276;29;20053;-87
2021/09/20 05:08:37;;;;;;;1.98;1.15;;;23.10;55.60;;;;;;3026566;29;20061;-89
2021/09/20 05:10:09;;;;;;;1.70;1.13;;;23.10;55.50;;;;;;3026987;29;20053;-87
2021/09/20 05:11:41;;;;;;;1.58;1.20;;;23.10;55.60;;;;;;3027246;29;20056;-87
2021/09/20 05:13:14;;;;;;;1.33;1.20;;;23.10;56.10;;;;;;3026795;29;20116;-87
2021/09/20 05:14:46;;;;;;;1.30;1.20;;;23.10;55.50;;;;;;3025739;29;20113;-87
2021/09/20 05:16:18;;;;;;;8.80;1.17;;;23.10;55.50;;;;;;3025633;29;20123;-87
2021/09/20 05:17:50;;;;;;;1.92;1.40;;;23.10;55.30;;;;;;3027023;29;20075;-86
2021/09/20 05:19:22;;;;;;;7.20;1.45;;;23.10;55.20;;;;;;3021972;29;20068;-88
2021/09/20 05:20:53;;;;;;;5.70;1.45;;;23.00;55.30;;;;;;3026812;29;20049;-86
2021/09/20 05:22:25;;;;;;;16.67;1.70;;;23.00;55.30;;;;;;3022889;29;20068;-88
2021/09/20 05:23:57;;;;;;;12.17;2.23;;;22.90;55.50;;;;;;3018374;29;20079;-88
2021/09/20 05:25:29;;;;;;;17.52;2.35;;;22.80;55.90;;;;;;3021378;29;20256;-87
2021/09/20 05:27:01;;;;;;;9.88;1.80;;;22.80;56.30;;;;;;3017159;29;20053;-88
2021/09/20 05:28:34;;;;;;;10.27;1.65;;;22.80;56.10;;;;;;3015074;29;20741;-88
2021/09/20 05:30:08;;;;;;;7.57;1.98;;;22.80;56.20;;;;;;3014853;29;20106;-88
2021/09/20 05:31:40;;;;;;;20.05;2.00;;;22.90;56.50;;;;;;3026902;29;20557;-87
2021/09/20 05:33:13;;;;;;;8.65;1.60;;;22.90;56.60;;;;;;3027197;29;20116;-87
2021/09/20 05:34:45;;;;;;;11.02;1.90;;;22.90;56.50;;;;;;3025819;29;20183;-87
2021/09/20 05:36:17;;;;;;;14.98;2.05;;;22.90;56.60;;;;;;3027107;29;20531;-86
2021/09/20 05:37:48;;;;;;;18.98;2.13;;;23.00;56.70;;;;;;3027547;29;20057;-86
2021/09/20 05:39:20;;;;;;;13.68;1.98;;;23.00;56.80;;;;;;3028446;29;20048;-88
2021/09/20 05:40:52;;;;;;;17.17;2.20;;;23.00;56.70;;;;;;3028909;29;20061;-88
2021/09/20 05:42:24;;;;;;;16.73;3.55;;;23.00;56.70;;;;;;3029070;29;20085;-86
2021/09/20 05:43:57;;;;;;;21.75;3.20;;;23.00;56.70;;;;;;3029681;29;20105;-87
2021/09/20 05:45:29;;;;;;;20.98;3.58;;;23.00;56.90;;;;;;3026637;29;20049;-88
2021/09/20 05:47:01;;;;;;;19.65;3.60;;;23.00;56.70;;;;;;3026344;29;20056;-88
2021/09/20 05:48:33;;;;;;;18.65;3.80;;;23.00;56.60;;;;;;3025349;29;20544;-88
2021/09/20 05:50:06;;;;;;;24.52;4.18;;;23.10;56.40;;;;;;3024933;29;20049;-88
2021/09/20 05:51:37;;;;;;;;;;;23.10;56.50;;;;;;3024759;29;20057;-88
2021/09/20 05:53:09;;;;;;;27.23;4.15;;;23.10;56.50;;;;;;3020871;29;20022;-89
2021/09/20 05:54:44;;;;;;;14.20;3.95;;;23.00;56.50;;;;;;3014995;29;20057;-88
2021/09/20 05:56:16;;;;;;;20.60;3.53;;;23.00;56.50;;;;;;3014754;29;20425;-87
2021/09/20 05:57:48;;;;;;;25.35;4.63;;;23.00;56.50;;;;;;3014899;29;20060;-88
2021/09/20 05:59:21;;;;;;;25.80;3.60;;;23.00;56.80;;;;;;3014532;29;20137;-88
2021/09/20 06:00:53;;;;;;;14.13;3.28;;;23.00;57.00;;;;;;3014475;29;20059;-87
2021/09/20 06:02:24;;;;;;;15.77;3.33;;;23.00;57.00;;;;;;3014893;29;20049;-88
2021/09/20 06:03:56;;;;;;;16.52;3.13;;;23.00;56.90;;;;;;3014556;29;20053;-88
2021/09/20 06:05:29;;;;;;;15.90;3.08;;;23.00;56.70;;;;;;3014524;29;20057;-87
2021/09/20 06:07:01;;;;;;;27.60;3.88;;;23.00;57.00;;;;;;3014388;29;20057;-88
2021/09/20 06:08:32;;;;;;;21.85;3.50;;;22.90;56.80;;;;;;3019237;29;20049;-87
2021/09/20 06:10:05;;;;;;;13.57;3.03;;;22.90;56.70;;;;;;3026210;29;20049;-88
2021/09/20 06:11:37;;;;;;;19.13;2.80;;;22.90;56.20;;;;;;3026208;29;20120;-87
2021/09/20 06:13:09;;;;;;;12.63;2.90;;;22.90;55.70;;;;;;3026192;29;20057;-88
2021/09/20 06:14:42;;;;;;;14.15;2.70;;;22.90;55.40;;;;;;3025544;29;20569;-86
2021/09/20 06:16:15;;;;;;;17.60;2.88;;;22.90;55.10;;;;;;3025420;29;20053;-87
2021/09/20 06:17:46;;;;;;;14.90;2.47;;;22.90;54.70;;;;;;3026151;29;20056;-87
2021/09/20 06:19:18;;;;;;;10.52;2.47;;;22.90;54.20;;;;;;3021425;29;20046;-87
2021/09/20 06:20:50;;;;;;;12.93;2.42;;;22.90;53.90;;;;;;3018327;29;20169;-89
2021/09/20 06:22:22;;;;;;;11.68;2.10;;;22.80;53.40;;;;;;3019848;29;20093;-88
2021/09/20 06:23:54;;;;;;;14.43;2.38;;;22.80;53.10;;;;;;3017408;29;20077;-88
2021/09/20 06:25:26;;;;;;;26.00;2.53;;;22.80;52.80;;;;;;3024964;29;20413;-88
2021/09/20 06:26:58;;;;;;;19.47;3.13;;;22.90;52.50;;;;;;3026246;29;20048;-89
2021/09/20 06:28:30;;;;;;;14.88;2.30;;;22.90;52.60;;;;;;3026865;29;20289;-88
2021/09/20 06:30:03;;;;;;;10.27;2.45;;;22.90;52.90;;;;;;3037908;29;20052;-88
2021/09/20 06:31:35;;;;;;;13.82;2.58;;;22.90;53.10;;;;;;3036426;29;20067;-88
2021/09/20 06:33:07;;;;;;;10.65;2.50;;;22.90;53.20;;;;;;3038145;29;20109;-88
2021/09/20 06:34:39;;;;;;;9.80;2.42;;;23.00;53.00;;;;;;3026718;29;20057;-88
2021/09/20 06:36:10;;;;;;;12.20;2.42;;;22.90;53.10;;;;;;3022427;29;20063;-89
2021/09/20 06:37:42;;;;;;;14.65;2.45;;;22.90;53.20;;;;;;3018582;29;20045;-89
2021/09/20 06:39:14;;;;;;;11.23;2.20;;;22.90;53.30;;;;;;3019165;29;20057;-88
2021/09/20 06:40:46;;;;;;;14.15;2.30;;;22.90;53.50;;;;;;3015089;29;20098;-89
2021/09/20 06:42:18;;;;;;;8.00;1.83;;;22.90;53.80;;;;;;3016818;29;20053;-88
2021/09/20 06:43:50;;;;;;;12.25;2.17;;;22.90;53.70;;;;;;3021270;29;20053;-88
2021/09/20 06:45:23;;;;;;;12.48;2.40;;;23.00;53.80;;;;;;3021790;29;20097;-87
2021/09/20 06:46:55;;;;;;;11.90;2.40;;;22.90;53.80;;;;;;3023817;29;20128;-89
2021/09/20 06:48:26;;;;;;;12.85;2.00;;;22.90;54.10;;;;;;3025175;29;20064;-88
2021/09/20 06:49:58;;;;;;;10.60;2.30;;;22.90;53.90;;;;;;3025681;29;20545;-88
2021/09/20 06:51:30;;;;;;;8.50;2.20;;;22.90;53.70;;;;;;3025094;29;20053;-86
2021/09/20 06:53:02;;;;;;;10.63;2.17;;;23.00;53.90;;;;;;3016488;29;20049;-89
2021/09/20 06:54:33;;;;;;;7.78;2.05;;;23.00;53.80;;;;;;3023901;29;20113;-89
2021/09/20 06:56:05;;;;;;;13.77;2.35;;;23.00;53.70;;;;;;3023480;29;20489;-89
2021/09/20 06:57:37;;;;;;;11.48;2.20;;;23.00;54.10;;;;;;3023600;29;20426;-88
2021/09/20 06:59:09;;;;;;;19.88;2.45;;;23.10;54.10;;;;;;3024807;29;20045;-88
2021/09/20 07:00:42;;;;;;;11.75;2.17;;;23.10;54.10;;;;;;3025817;29;20505;-90
2021/09/20 07:02:14;;;;;;;18.20;2.60;;;23.10;54.20;;;;;;3026592;29;20605;-89
2021/09/20 07:03:46;;;;;;;14.73;2.83;;;23.20;54.60;;;;;;3025939;29;20508;-90
2021/09/20 07:05:18;;;;;;;24.75;3.55;;;23.20;54.80;;;;;;3026034;29;20048;-90
2021/09/20 07:06:50;;;;;;;23.45;2.58;;;23.20;55.00;;;;;;3025473;29;20056;-89
2021/09/20 07:08:22;;;;;;;14.23;2.88;;;23.30;55.40;;;;;;3026318;29;20509;-89
2021/09/20 07:09:53;;;;;;;9.98;2.35;;;23.30;55.60;;;;;;3025895;29;20481;-89
2021/09/20 07:11:25;;;;;;;17.52;2.50;;;23.40;55.60;;;;;;3025892;29;20113;-86
2021/09/20 07:12:57;;;;;;;15.90;2.45;;;23.40;55.30;;;;;;3022448;29;20049;-87
2021/09/20 07:14:29;;;;;;;14.48;2.55;;;23.40;55.00;;;;;;3019791;29;20569;-88
2021/09/20 07:16:02;;;;;;;15.43;2.28;;;23.40;54.90;;;;;;3018618;29;20061;-89
2021/09/20 07:17:34;;;;;;;8.35;2.10;;;23.40;54.80;;;;;;3017025;29;20050;-88
2021/09/20 07:19:06;;;;;;;12.75;1.88;;;23.40;54.70;;;;;;3016318;29;20056;-88
2021/09/20 07:20:37;;;;;;;18.90;2.42;;;23.50;54.70;;;;;;3025357;29;20120;-87
2021/09/20 07:22:09;;;;;;;9.20;2.03;;;23.40;54.60;;;;;;3025435;29;20133;-88
2021/09/20 07:23:41;;;;;;;10.88;2.15;;;23.50;54.80;;;;;;3025230;29;20065;-88
2021/09/20 07:25:13;;;;;;;9.40;2.97;;;23.40;54.70;;;;;;3025074;29;20045;-88
2021/09/20 07:26:45;;;;;;;6.97;1.98;;;23.40;54.80;;;;;;3020902;29;20057;-88
2021/09/20 07:28:16;;;;;;;17.15;2.47;;;23.40;54.80;;;;;;3025812;29;20083;-88
2021/09/20 07:29:48;;;;;;;9.77;1.92;;;23.40;54.60;;;;;;3025368;29;20105;-88
2021/09/20 07:31:22;;;;;;;11.95;2.13;;;23.30;54.20;;;;;;3024657;29;20109;-88
2021/09/20 07:32:54;;;;;;;10.80;2.40;;;23.30;54.20;;;;;;3026128;29;20065;-88
2021/09/20 07:34:25;;;;;;;5.70;1.80;;;23.20;54.10;;;;;;3025204;29;20505;-88
2021/09/20 07:35:57;;;;;;;8.93;2.20;;;23.20;54.10;;;;;;3025389;29;20045;-88
2021/09/20 07:37:29;;;;;;;9.23;2.17;;;23.10;54.10;;;;;;3025158;29;20565;-87
2021/09/20 07:39:01;;;;;;;7.18;2.03;;;23.10;54.20;;;;;;3025776;29;20052;-87
2021/09/20 07:40:34;;;;;;;11.00;2.28;;;23.10;54.20;;;;;;3023625;29;20093;-88
2021/09/20 07:42:08;;;;;;;11.52;2.17;;;23.10;54.20;;;;;;3017534;29;20063;-88
2021/09/20 07:43:44;;;;;;;13.75;2.13;;;23.00;55.00;;;;;;3024954;29;20081;-87
2021/09/20 07:45:16;;;;;;;11.40;2.05;;;23.10;54.40;;;;;;3024722;29;20121;-88
2021/09/20 07:46:49;;;;;;;7.07;1.85;;;23.10;54.40;;;;;;3024378;29;20061;-87
2021/09/20 07:48:21;;;;;;;7.00;2.03;;;23.10;54.50;;;;;;3019674;29;20140;-87
2021/09/20 07:49:53;;;;;;;9.13;1.88;;;23.10;54.50;;;;;;3027408;29;20056;-88
2021/09/20 07:51:24;;;;;;;7.68;2.33;;;23.10;54.40;;;;;;3028223;29;20427;-88
2021/09/20 07:52:56;;;;;;;12.65;2.10;;;23.20;54.50;;;;;;3024849;29;20056;-88
2021/09/20 07:54:28;;;;;;;7.38;2.20;;;23.10;54.60;;;;;;3025135;29;20053;-87
2021/09/20 07:56:00;;;;;;;10.02;2.00;;;23.10;54.70;;;;;;3027940;29;20057;-88
2021/09/20 07:57:32;;;;;;;7.35;1.92;;;23.10;54.80;;;;;;3026297;29;20056;-88